Isla Nueva, Argentina
Current Conditions -  °F | °C
As of 8:00 AM on Monday 20 Oct 2014 (Local Time) from SAWH Reporting Station
Rain Showers Rain Showers  
Wind Chill:   Ceiling: 3500
Heat Index:   Visibility: 6mi
Dew Point:   Wind: 6mph
Humidity: 81%   Direction: 250°WSW
Pressure: 29.44"   Gusts: NA
Location:  55.25°S, 66.49°W
Report Text: SAWH 201100Z 25005KT 9999 VCSH BKN035BKN100 07/04 Q0997
Loading
Personal Weather Stations






























Interactive Weather Map
Tropical Storm Tracking
New forecast layout! Learn more

10-Day Weather Forecast

Advertisements
Track Severe Weather on mobile